Actau Airport (formerly Shevchenko-Central)

Airport
ICAO code: 
UATE
IATA Code: 
SCO
Summary
ICAO Region: 
APAC
Territory: 
Location: 
Actau,
Serving: 
Actau
Elevation: 
73 ft
Coordinates: 
Aerial View: 
43° 51' 28.977" N, 51° 5' 32.144" E
Airport BS: 
Bird Strike
Metar
Observation
UATE 171719Z 03002MPS 330V090 1500 R30/P2000U SHSN SCT008 BKN033CB M01/M01 Q1022 TEMPO 0400 +SHSN SCT004 BKN015CB RMK QFE765/1020
Station
Aktau
Date/Time
2022-01-17 17:19:00
Wind direction
30°
Lowest cloud amount
scattered clouds
Temperature
30°C
Dew point
0°C
Humidity
14%
QNH
1022 hPa
Weather condition
n/a

Description

International airport serving Actau, a Caspian Sea port city in Kazakhstan. The airport is located approximately 20km north of the city.

Climatology

Cold Semi-arid climate (Köppen climate classification BSk). - Hot, sometimes extremely hot summers and cold, sometimes very cold winters. Some snowfall during the winter. Areas featuring cold semi-arid climates are sometimes subject to major temperature swings during a 24 hour period.

Runways

Designator Length Width Surface Rops
12/30 2652 45 ASP Yes/Yes
12L/30R 2935 46 GRE No/No
Airport map: 
Aerial View: 

SKYbrary Partners:

Safety knowledge contributed by: